createdAt,value
2022-09-11T00:00:00.852Z,16.2
2022-09-11T00:10:00.870Z,16.2
2022-09-11T00:20:00.885Z,16.1
2022-09-11T00:30:00.947Z,16.1
2022-09-11T00:40:00.935Z,16
2022-09-11T00:50:00.951Z,16
2022-09-11T01:00:01.035Z,16
2022-09-11T01:10:01.011Z,15.9
2022-09-11T01:20:01.028Z,15.8
2022-09-11T01:30:01.063Z,15.7
2022-09-11T01:40:01.066Z,15.6
2022-09-11T01:50:01.091Z,15.7
2022-09-11T02:00:01.113Z,15.6
2022-09-11T02:10:01.147Z,15.6
2022-09-11T02:20:01.180Z,15.5
2022-09-11T02:30:01.182Z,15.6
2022-09-11T02:40:01.202Z,15.5
2022-09-11T02:50:01.236Z,15.4
2022-09-11T03:00:01.297Z,15.3
2022-09-11T03:10:01.335Z,15.3
2022-09-11T03:20:01.304Z,15.3
2022-09-11T03:30:01.410Z,15.2
2022-09-11T03:40:01.336Z,15.2
2022-09-11T03:50:01.375Z,15.2
2022-09-11T04:00:01.379Z,15.2
2022-09-11T04:10:01.418Z,15.2
2022-09-11T04:20:01.434Z,15.2
2022-09-11T04:30:01.485Z,15.3
2022-09-11T04:40:01.478Z,15.2
2022-09-11T04:50:01.502Z,15.3
2022-09-11T05:00:01.534Z,15.4
2022-09-11T05:10:01.537Z,15.4
2022-09-11T05:20:01.570Z,15.3
2022-09-11T05:30:01.605Z,15.3
2022-09-11T05:40:01.602Z,15.5
2022-09-11T05:50:01.636Z,15.6
2022-09-11T06:00:01.670Z,15.7
2022-09-11T06:10:01.689Z,15.8
2022-09-11T06:20:01.712Z,16
2022-09-11T06:30:01.742Z,16.2
2022-09-11T06:40:01.755Z,16.3
2022-09-11T06:50:01.817Z,16.6
2022-09-11T07:00:01.950Z,16.6
2022-09-11T07:10:01.830Z,16.9
2022-09-11T07:20:01.873Z,17.3
2022-09-11T07:30:01.883Z,17.9
2022-09-11T07:40:01.902Z,18.2
2022-09-11T07:50:01.985Z,18.7
2022-09-11T08:00:01.962Z,19.1
2022-09-11T08:10:02.003Z,19.3
2022-09-11T08:20:02.004Z,19.4
2022-09-11T08:30:02.040Z,19.8
2022-09-11T08:40:02.068Z,20.1
2022-09-11T08:50:02.094Z,20.3
2022-09-11T09:00:02.109Z,20.6
2022-09-11T09:10:02.133Z,20.7
2022-09-11T09:20:02.187Z,20.9
2022-09-11T09:30:02.181Z,20.8
2022-09-11T09:40:02.214Z,21
2022-09-11T09:50:02.240Z,20.9
2022-09-11T10:00:02.264Z,20.9
2022-09-11T10:10:02.298Z,21
2022-09-11T10:20:02.312Z,21.2
2022-09-11T10:30:02.361Z,21.4
2022-09-11T10:40:02.381Z,21.8
2022-09-11T10:50:02.398Z,22.2
2022-09-11T11:00:02.465Z,22.4
2022-09-11T11:10:02.470Z,22.8
2022-09-11T11:20:02.475Z,23.9
2022-09-11T11:30:02.510Z,25.3
2022-09-11T11:40:02.521Z,25.8
2022-09-11T11:50:02.559Z,25.9
2022-09-11T12:00:02.625Z,25.6
2022-09-11T12:10:02.590Z,26.1
2022-09-11T12:20:02.630Z,25.5
2022-09-11T12:30:02.659Z,25.5
2022-09-11T12:40:02.691Z,26.1
2022-09-11T12:50:02.708Z,26.1
2022-09-11T13:00:02.738Z,26.7
2022-09-11T13:10:02.757Z,27.2
2022-09-11T13:20:02.782Z,27.3
2022-09-11T13:30:02.803Z,26.8
2022-09-11T13:40:02.843Z,26.2
2022-09-11T13:50:02.866Z,25.5
2022-09-11T14:00:02.875Z,24.6
2022-09-11T14:10:02.922Z,24.1
2022-09-11T14:20:02.949Z,23.9
2022-09-11T14:30:02.971Z,23.6
2022-09-11T14:40:03.000Z,23.4
2022-09-11T14:50:03.071Z,23.4
2022-09-11T15:00:03.105Z,23.4
2022-09-11T15:10:03.072Z,23.4
2022-09-11T15:20:03.111Z,23.4
2022-09-11T15:30:03.139Z,23.3
2022-09-11T15:40:03.162Z,23
2022-09-11T15:50:03.186Z,22.5
2022-09-11T16:00:03.208Z,21.8
2022-09-11T16:10:03.244Z,21.8
2022-09-11T16:20:03.263Z,21.6
2022-09-11T16:30:03.309Z,21.6
2022-09-11T16:40:03.314Z,21.5
2022-09-11T16:50:03.356Z,21.2
2022-09-11T17:00:03.373Z,21.1
2022-09-11T17:10:03.395Z,21
2022-09-11T17:20:03.440Z,20.8
2022-09-11T17:30:03.472Z,20.8
2022-09-11T17:40:03.484Z,20.9
2022-09-11T17:50:03.512Z,20.9
2022-09-11T18:00:03.557Z,21
2022-09-11T18:10:03.570Z,21.3
2022-09-11T18:20:03.610Z,21
2022-09-11T18:30:03.622Z,21.1
2022-09-11T18:40:03.660Z,21
2022-09-11T18:50:03.679Z,20.9
2022-09-11T19:00:03.728Z,21
2022-09-11T19:10:03.759Z,20.9
2022-09-11T19:20:03.772Z,20.9
2022-09-11T19:30:03.811Z,20.9
2022-09-11T19:40:03.802Z,21
2022-09-11T19:50:03.859Z,20.9
2022-09-11T20:00:03.884Z,20.9
2022-09-11T20:10:03.909Z,20.9
2022-09-11T20:20:03.976Z,21
2022-09-11T20:30:03.948Z,21
2022-09-11T20:40:03.994Z,20.9
2022-09-11T20:50:03.999Z,21
2022-09-11T21:00:04.042Z,21.1
2022-09-11T21:10:04.057Z,21
2022-09-11T21:20:04.082Z,21.2
2022-09-11T21:30:04.125Z,21.1
2022-09-11T21:40:04.146Z,20.9
2022-09-11T21:50:04.185Z,20.9
2022-09-11T22:00:04.210Z,20.7
2022-09-11T22:10:04.254Z,20.7
2022-09-11T22:20:04.270Z,20.5
2022-09-11T22:30:04.280Z,20.4
2022-09-11T22:40:04.342Z,20.4
2022-09-11T22:50:04.349Z,20.4
2022-09-11T23:00:04.362Z,20.3
2022-09-11T23:10:04.398Z,20.3
2022-09-11T23:20:04.426Z,20.3
2022-09-11T23:30:04.453Z,20.3
2022-09-11T23:40:04.496Z,20.3
2022-09-11T23:50:04.524Z,20.3
